Toddville, Iowa
Current Conditions -  °F | °C
As of 3:52 AM on Sunday 25 Jan 2015 (Local Time) from KCID Reporting Station
Light Rain Light Rain  
Wind Chill: 29°   Ceiling: 4800
Heat Index: 35°   Visibility: 10mi
Dew Point: 33°   Wind: 7mph
Humidity: 92%   Direction: 50°NE
Pressure: 29.57"   Gusts: NA
Location:  42.1°N, 91.72°W
Report Text: KCID 250952Z AUTO 05006KT 10SM -RA OVC048 02/01 A2957 RMK AO2 RAB06E09B35 SLP017 P0000 T00170006
Loading
Personal Weather Stations






























Interactive Weather Map New forecast layout! Learn more

10-Day Weather Forecast

Advertisements
Track Severe Weather on mobile